Time;durP1;ratioP1;P1;durP2;ratioP2;P2;SDS_P1;SDS_P2;PMS_P1;PMS_P2;Temp;Humidity;BMP_temperature;BMP_pressure;BME280_temperature;BME280_humidity;BME280_pressure;Samples;Min_cycle;Max_cycle;Signal;HPM_P1;HPM_P2
2023/08/21 00:00:28;;;;;;;12.90;7.17;;;24.10;98.00;;;;;;5053679;28;20826;-70
2023/08/21 00:02:55;;;;;;;14.97;7.37;;;24.10;98.00;;;;;;5035675;28;20457;-70
2023/08/21 00:05:22;;;;;;;13.70;7.00;;;24.00;98.00;;;;;;5035890;28;20453;-70
2023/08/21 00:07:51;;;;;;;12.70;6.60;;;24.00;98.00;;;;;;5035573;28;20478;-70
2023/08/21 00:10:18;;;;;;;11.73;6.90;;;23.90;98.00;;;;;;5053320;28;20450;-70
2023/08/21 00:12:45;;;;;;;12.43;7.10;;;23.90;98.00;;;;;;5053346;28;20454;-70
2023/08/21 00:15:12;;;;;;;11.83;6.90;;;24.00;98.00;;;;;;5053017;28;20512;-70
2023/08/21 00:17:40;;;;;;;12.33;6.93;;;24.10;98.00;;;;;;5053181;28;20446;-70
2023/08/21 00:20:09;;;;;;;12.53;7.47;;;24.10;98.00;;;;;;5035388;28;20445;-70
2023/08/21 00:22:36;;;;;;;12.97;6.13;;;24.10;98.00;;;;;;5052995;28;20469;-70
2023/08/21 00:25:05;;;;;;;14.70;7.03;;;24.20;98.00;;;;;;5052745;28;20453;-70
2023/08/21 00:27:32;;;;;;;10.93;6.60;;;24.20;98.00;;;;;;5052908;28;20484;-70
2023/08/21 00:30:01;;;;;;;15.70;7.67;;;24.20;98.00;;;;;;5052900;28;20448;-70
2023/08/21 00:32:28;;;;;;;10.00;6.40;;;24.20;98.00;;;;;;5053029;28;20504;-70
2023/08/21 00:34:55;;;;;;;11.50;7.20;;;24.00;98.00;;;;;;5053212;28;20458;-70
2023/08/21 00:37:22;;;;;;;12.37;6.90;;;24.10;98.00;;;;;;5052797;28;20454;-70
2023/08/21 00:39:49;;;;;;;12.70;7.07;;;24.10;98.00;;;;;;5052693;28;20456;-70
2023/08/21 00:42:18;;;;;;;12.83;7.23;;;23.90;98.00;;;;;;5052576;28;20449;-70
2023/08/21 00:44:45;;;;;;;13.60;6.87;;;23.90;98.00;;;;;;5052839;28;20465;-70
2023/08/21 00:47:12;;;;;;;14.47;7.40;;;23.70;98.00;;;;;;5034767;28;20516;-70
2023/08/21 00:49:41;;;;;;;11.67;7.10;;;23.80;98.00;;;;;;5052958;28;20446;-70
2023/08/21 00:52:10;;;;;;;19.10;6.87;;;23.70;98.00;;;;;;5034704;28;20554;-70
2023/08/21 00:54:40;;;;;;;11.30;7.10;;;23.60;98.00;;;;;;5034816;28;20948;-70
2023/08/21 00:57:07;;;;;;;11.13;6.90;;;23.50;98.00;;;;;;5052362;28;20835;-70
2023/08/21 00:59:39;;;;;;;12.57;7.30;;;23.40;98.00;;;;;;5052610;28;20450;-70
2023/08/21 01:02:06;;;;;;;11.80;7.50;;;23.30;98.00;;;;;;5052239;28;20454;-69
2023/08/21 01:04:33;;;;;;;18.50;7.30;;;23.30;98.00;;;;;;5051753;28;20523;-69
2023/08/21 01:07:00;;;;;;;12.80;7.60;;;23.30;98.00;;;;;;5033997;28;20492;-70
2023/08/21 01:09:34;;;;;;;10.70;6.50;;;23.30;98.00;;;;;;5052517;28;20450;-69
2023/08/21 01:12:10;;;;;;;12.30;7.00;;;23.40;98.00;;;;;;5052086;28;20978;-69
2023/08/21 01:14:46;;;;;;;12.83;6.63;;;23.50;98.00;;;;;;5052178;28;20532;-70
2023/08/21 01:17:15;;;;;;;13.40;7.40;;;23.50;98.00;;;;;;5052004;28;20976;-70
2023/08/21 01:19:44;;;;;;;15.97;7.23;;;23.50;98.00;;;;;;5052078;28;20454;-70
2023/08/21 01:22:12;;;;;;;12.77;7.07;;;23.60;98.00;;;;;;5051774;28;20960;-70
2023/08/21 01:24:40;;;;;;;15.10;7.10;;;23.60;98.00;;;;;;5051549;28;20482;-70
2023/08/21 01:27:09;;;;;;;13.97;7.07;;;23.60;98.00;;;;;;5051958;28;21003;-70
2023/08/21 01:29:36;;;;;;;14.50;7.10;;;23.60;98.00;;;;;;5052235;28;20461;-70
2023/08/21 01:32:10;;;;;;;11.23;6.90;;;23.60;98.00;;;;;;5051644;28;20477;-70
2023/08/21 01:34:40;;;;;;;13.40;7.20;;;23.40;98.00;;;;;;5051679;28;20454;-70
2023/08/21 01:37:08;;;;;;;14.20;7.10;;;23.40;98.00;;;;;;5051640;28;20453;-69
2023/08/21 01:39:35;;;;;;;14.63;6.77;;;23.40;98.00;;;;;;5051795;28;20809;-70
2023/08/21 01:42:04;;;;;;;12.53;7.70;;;23.30;98.00;;;;;;5051702;28;20481;-70
2023/08/21 01:44:31;;;;;;;14.53;7.30;;;23.20;98.00;;;;;;5051690;28;20462;-70
2023/08/21 01:47:15;;;;;;;10.47;6.90;;;23.20;98.00;;;;;;5033730;28;20450;-69
2023/08/21 01:49:46;;;;;;;12.23;6.83;;;23.00;98.00;;;;;;5049253;28;20446;-70
2023/08/21 01:52:16;;;;;;;15.50;7.80;;;23.00;98.00;;;;;;5051392;28;20453;-70
2023/08/21 01:54:43;;;;;;;13.70;7.47;;;22.90;98.00;;;;;;5050915;28;20453;-70
2023/08/21 01:57:12;;;;;;;13.47;6.90;;;22.90;98.00;;;;;;5051522;28;20963;-69
2023/08/21 01:59:39;;;;;;;15.87;7.27;;;22.90;98.00;;;;;;5051436;28;20449;-69
2023/08/21 02:02:06;;;;;;;13.17;7.13;;;22.90;98.00;;;;;;5051079;28;20453;-70
2023/08/21 02:04:33;;;;;;;14.50;7.10;;;22.90;98.00;;;;;;5051174;28;20457;-69
2023/08/21 02:07:00;;;;;;;13.37;7.10;;;23.00;98.00;;;;;;5051070;28;20832;-69
2023/08/21 02:09:27;;;;;;;11.40;6.50;;;23.10;98.00;;;;;;5051251;28;20889;-69
2023/08/21 02:11:54;;;;;;;12.20;7.03;;;23.10;98.00;;;;;;5051137;28;20519;-70
2023/08/21 02:14:23;;;;;;;14.80;7.30;;;23.20;98.00;;;;;;5051233;28;20461;-69
2023/08/21 02:16:50;;;;;;;14.40;7.03;;;23.30;98.00;;;;;;5050391;28;20453;-70
2023/08/21 02:19:17;;;;;;;13.97;7.27;;;23.20;98.00;;;;;;5050953;28;21005;-69
2023/08/21 02:21:44;;;;;;;12.53;6.47;;;23.10;98.00;;;;;;5050973;28;20470;-69
2023/08/21 02:24:11;;;;;;;13.27;6.87;;;23.00;98.00;;;;;;5050885;28;20459;-70
2023/08/21 02:26:38;;;;;;;16.90;6.93;;;23.00;98.00;;;;;;5050712;28;21139;-69
2023/08/21 02:29:05;;;;;;;13.23;7.40;;;22.90;98.00;;;;;;5050861;28;20477;-69
2023/08/21 02:31:34;;;;;;;12.20;7.30;;;22.70;98.00;;;;;;5016869;28;20450;-69
2023/08/21 02:34:01;;;;;;;12.10;7.17;;;22.70;98.00;;;;;;5033264;28;20454;-69
2023/08/21 02:36:28;;;;;;;12.30;7.13;;;22.50;98.00;;;;;;5050754;28;20446;-70
2023/08/21 02:38:56;;;;;;;12.00;7.60;;;22.40;98.00;;;;;;5033149;28;20957;-69
2023/08/21 02:41:23;;;;;;;17.57;7.60;;;22.40;98.00;;;;;;5050683;28;20912;-69
2023/08/21 02:43:51;;;;;;;15.17;7.20;;;22.50;98.00;;;;;;5050834;28;20491;-70
2023/08/21 02:46:18;;;;;;;13.03;7.60;;;22.40;98.00;;;;;;5050643;28;20453;-69
2023/08/21 02:48:47;;;;;;;14.60;7.47;;;22.40;98.00;;;;;;5050885;28;21092;-69
2023/08/21 02:51:14;;;;;;;13.40;7.23;;;22.30;98.00;;;;;;5050614;28;20453;-69
2023/08/21 02:53:41;;;;;;;12.90;8.00;;;22.30;98.00;;;;;;5050911;28;20458;-69
2023/08/21 02:56:09;;;;;;;17.90;7.20;;;22.20;98.00;;;;;;5050714;28;20446;-70
2023/08/21 02:58:36;;;;;;;11.73;7.10;;;22.10;98.00;;;;;;5050677;28;20818;-69
2023/08/21 03:01:03;;;;;;;11.70;6.70;;;22.20;98.00;;;;;;5050564;28;20465;-70
2023/08/21 03:03:32;;;;;;;12.70;7.20;;;22.30;98.00;;;;;;5032758;28;20970;-70
2023/08/21 03:06:00;;;;;;;13.33;7.60;;;22.40;98.00;;;;;;5050619;28;20446;-69
2023/08/21 03:08:27;;;;;;;15.60;7.67;;;22.40;98.00;;;;;;5050573;28;20485;-70
2023/08/21 03:10:54;;;;;;;13.80;7.67;;;22.30;98.00;;;;;;5050580;28;20457;-69
2023/08/21 03:13:22;;;;;;;14.90;7.50;;;22.30;98.00;;;;;;5050696;28;20449;-69
2023/08/21 03:15:49;;;;;;;11.93;6.73;;;22.30;98.00;;;;;;5049975;28;20481;-69
2023/08/21 03:18:18;;;;;;;12.23;7.57;;;22.40;98.00;;;;;;5050543;28;20815;-70
2023/08/21 03:20:46;;;;;;;12.63;7.00;;;22.40;98.00;;;;;;5050611;28;20512;-69
2023/08/21 03:23:14;;;;;;;14.73;7.07;;;22.50;98.00;;;;;;5032872;28;20540;-69
2023/08/21 03:25:41;;;;;;;15.90;7.87;;;22.50;98.00;;;;;;5050217;28;20450;-69
2023/08/21 03:28:16;;;;;;;12.67;7.57;;;22.60;98.00;;;;;;5052176;28;20488;-69
2023/08/21 03:30:43;;;;;;;16.13;7.20;;;22.30;98.00;;;;;;5054291;28;20457;-69
2023/08/21 03:33:11;;;;;;;12.47;7.40;;;22.20;98.00;;;;;;5053834;28;20477;-69
2023/08/21 03:35:38;;;;;;;13.40;6.87;;;22.10;98.00;;;;;;5054121;28;20781;-69
2023/08/21 03:38:06;;;;;;;15.20;7.80;;;22.10;98.00;;;;;;5036353;28;20450;-69
2023/08/21 03:40:34;;;;;;;11.90;7.30;;;22.20;98.00;;;;;;5036473;28;20971;-69
2023/08/21 03:43:01;;;;;;;12.00;6.63;;;22.10;98.00;;;;;;5053617;28;20458;-70
2023/08/21 03:45:29;;;;;;;15.70;7.00;;;22.00;98.00;;;;;;5053835;28;20452;-69
2023/08/21 03:47:56;;;;;;;13.33;7.53;;;22.00;98.00;;;;;;5053659;28;20915;-70
2023/08/21 03:50:23;;;;;;;15.33;8.20;;;21.90;98.00;;;;;;5053851;28;20450;-69
2023/08/21 03:52:50;;;;;;;16.00;7.43;;;21.90;98.00;;;;;;5053692;28;20457;-69
2023/08/21 03:55:17;;;;;;;13.10;7.13;;;21.80;98.00;;;;;;5053759;28;20459;-69
2023/08/21 03:57:45;;;;;;;13.27;6.93;;;21.90;98.00;;;;;;5053591;28;20956;-69
2023/08/21 04:00:13;;;;;;;13.77;7.43;;;22.10;98.00;;;;;;5053614;28;20791;-69
2023/08/21 04:02:40;;;;;;;15.70;7.20;;;22.00;98.00;;;;;;5053560;28;20460;-69
2023/08/21 04:05:08;;;;;;;15.53;7.43;;;21.90;98.00;;;;;;5053669;28;20477;-69
2023/08/21 04:07:35;;;;;;;16.17;8.17;;;21.80;98.00;;;;;;5052993;28;20449;-69
2023/08/21 04:10:05;;;;;;;14.03;7.70;;;21.80;98.00;;;;;;5053527;28;20446;-69
2023/08/21 04:12:32;;;;;;;20.40;8.20;;;21.70;98.00;;;;;;5051785;28;20453;-69
2023/08/21 04:15:01;;;;;;;14.90;7.70;;;21.70;98.00;;;;;;5053596;28;20453;-69
2023/08/21 04:17:28;;;;;;;11.50;7.43;;;21.70;98.00;;;;;;5053239;28;20449;-69
2023/08/21 04:19:56;;;;;;;12.57;7.10;;;21.80;98.00;;;;;;5053124;28;20462;-69
2023/08/21 04:22:23;;;;;;;13.97;6.80;;;21.90;98.00;;;;;;5053384;28;20803;-70
2023/08/21 04:24:50;;;;;;;13.77;6.80;;;21.90;98.00;;;;;;5053161;28;20822;-70
2023/08/21 04:27:17;;;;;;;13.60;7.13;;;21.90;98.00;;;;;;5053039;28;20450;-69
2023/08/21 04:29:44;;;;;;;13.17;6.60;;;21.90;98.00;;;;;;5053033;28;20497;-69
2023/08/21 04:32:13;;;;;;;13.37;7.33;;;22.00;98.00;;;;;;5035360;28;20445;-69
2023/08/21 04:34:40;;;;;;;12.20;6.67;;;22.10;98.00;;;;;;5052862;28;20493;-70
2023/08/21 04:37:07;;;;;;;15.77;6.50;;;22.00;98.00;;;;;;5052916;28;21090;-69
2023/08/21 04:39:36;;;;;;;12.80;7.10;;;21.90;98.00;;;;;;5052073;28;20465;-69
2023/08/21 04:42:03;;;;;;;11.80;6.90;;;21.90;98.00;;;;;;5052866;28;20966;-69
2023/08/21 04:44:31;;;;;;;15.73;7.80;;;21.90;98.00;;;;;;5052654;28;20461;-69
2023/08/21 04:47:19;;;;;;;12.17;7.37;;;21.80;98.00;;;;;;5052629;28;20486;-69
2023/08/21 04:49:48;;;;;;;14.00;7.20;;;21.80;98.00;;;;;;5052616;28;20913;-69
2023/08/21 04:52:15;;;;;;;12.47;7.20;;;21.80;98.00;;;;;;5052564;28;20998;-69
2023/08/21 04:54:42;;;;;;;14.40;7.83;;;21.80;98.00;;;;;;5052521;28;20454;-68
2023/08/21 04:57:09;;;;;;;12.20;7.50;;;21.80;98.00;;;;;;5052335;28;20884;-69
2023/08/21 04:59:37;;;;;;;15.10;7.60;;;21.80;98.00;;;;;;5052598;28;20454;-69
2023/08/21 05:02:04;;;;;;;15.40;7.40;;;21.80;98.00;;;;;;5052166;28;20458;-69
2023/08/21 05:04:31;;;;;;;13.70;7.23;;;21.80;98.00;;;;;;5052168;28;20816;-69
2023/08/21 05:07:00;;;;;;;14.63;7.63;;;21.70;98.00;;;;;;5052566;28;20462;-69
2023/08/21 05:09:27;;;;;;;13.13;7.13;;;21.80;98.00;;;;;;5052519;28;20489;-69
2023/08/21 05:11:55;;;;;;;12.00;7.13;;;21.80;98.00;;;;;;5052318;28;20465;-69
2023/08/21 05:14:24;;;;;;;16.60;7.77;;;21.80;98.00;;;;;;5052295;28;21011;-69
2023/08/21 05:16:51;;;;;;;14.50;7.23;;;21.90;98.00;;;;;;5034404;28;20462;-69
2023/08/21 05:19:18;;;;;;;12.90;7.60;;;21.90;98.00;;;;;;5052116;28;20453;-69
2023/08/21 05:21:46;;;;;;;13.87;8.10;;;22.00;98.00;;;;;;5052035;28;20465;-69
2023/08/21 05:24:15;;;;;;;14.50;6.60;;;22.00;98.00;;;;;;5052334;28;20515;-69
2023/08/21 05:26:42;;;;;;;12.77;7.47;;;22.00;98.00;;;;;;5052159;28;20453;-69
2023/08/21 05:29:09;;;;;;;13.57;7.47;;;22.10;98.00;;;;;;5051668;28;20833;-69
2023/08/21 05:31:36;;;;;;;13.60;6.50;;;22.20;98.00;;;;;;5051836;28;20968;-69
2023/08/21 05:34:04;;;;;;;14.37;7.53;;;22.30;98.00;;;;;;5034197;28;20536;-69
2023/08/21 05:36:31;;;;;;;12.47;7.00;;;22.40;98.00;;;;;;5051968;28;20940;-69
2023/08/21 05:38:58;;;;;;;11.53;7.13;;;22.50;98.00;;;;;;5051024;28;20453;-69
2023/08/21 05:41:26;;;;;;;15.07;7.67;;;22.50;98.00;;;;;;5051805;28;20458;-69
2023/08/21 05:43:54;;;;;;;14.50;7.93;;;22.70;98.00;;;;;;5051793;28;20446;-69
2023/08/21 05:46:21;;;;;;;18.20;8.93;;;22.70;98.00;;;;;;5033862;28;21006;-69
2023/08/21 05:48:48;;;;;;;15.93;7.80;;;22.80;98.00;;;;;;5051510;28;20482;-69
2023/08/21 05:51:15;;;;;;;14.60;7.90;;;22.90;98.00;;;;;;5051435;28;20454;-67
2023/08/21 05:53:42;;;;;;;12.63;7.70;;;22.80;98.00;;;;;;5051611;28;20499;-66
2023/08/21 05:56:10;;;;;;;12.03;7.00;;;22.80;98.00;;;;;;5051697;28;20457;-66
2023/08/21 05:58:38;;;;;;;13.30;6.90;;;22.80;98.00;;;;;;5051578;28;20446;-66
2023/08/21 06:01:05;;;;;;;14.10;7.63;;;22.90;98.00;;;;;;5051670;28;20449;-66
2023/08/21 06:03:32;;;;;;;12.80;7.10;;;22.90;98.00;;;;;;5051717;28;20460;-66
2023/08/21 06:05:59;;;;;;;15.60;8.13;;;23.00;98.00;;;;;;5051502;28;21001;-66
2023/08/21 06:08:26;;;;;;;12.90;7.53;;;23.10;98.00;;;;;;5051220;28;20468;-66
2023/08/21 06:10:54;;;;;;;13.70;7.90;;;23.20;98.00;;;;;;5033876;28;20924;-66
2023/08/21 06:13:21;;;;;;;16.50;8.80;;;23.50;98.00;;;;;;5051149;28;20450;-66
2023/08/21 06:15:50;;;;;;;14.03;7.97;;;23.50;98.00;;;;;;5050895;28;20461;-66
2023/08/21 06:18:17;;;;;;;15.70;8.10;;;23.40;98.00;;;;;;5051359;28;20536;-66
2023/08/21 06:20:44;;;;;;;16.57;7.47;;;23.50;98.00;;;;;;5050308;28;20453;-65
2023/08/21 06:23:12;;;;;;;15.70;8.10;;;23.50;98.00;;;;;;5051283;28;20561;-65
2023/08/21 06:25:39;;;;;;;12.70;7.00;;;23.70;98.00;;;;;;5051135;28;20458;-65
2023/08/21 06:28:06;;;;;;;11.47;6.93;;;24.00;98.00;;;;;;5033316;28;20468;-65
2023/08/21 06:30:33;;;;;;;13.20;7.20;;;24.20;98.00;;;;;;5050974;28;20489;-65
2023/08/21 06:33:08;;;;;;;11.20;6.80;;;24.40;98.00;;;;;;5050731;28;20442;-65
2023/08/21 06:35:37;;;;;;;12.83;7.50;;;24.60;98.00;;;;;;5033235;28;20461;-66
2023/08/21 06:38:06;;;;;;;13.07;7.07;;;24.70;98.00;;;;;;5051146;28;20504;-65
2023/08/21 06:40:33;;;;;;;14.47;7.50;;;24.60;98.00;;;;;;5033351;28;20453;-65
2023/08/21 06:43:00;;;;;;;16.57;6.90;;;24.70;98.00;;;;;;5050923;28;20457;-66
2023/08/21 06:45:30;;;;;;;11.20;7.00;;;25.00;98.00;;;;;;5033252;28;20987;-66
2023/08/21 06:47:58;;;;;;;12.30;7.30;;;25.20;98.00;;;;;;5050899;28;20458;-65
2023/08/21 06:50:26;;;;;;;15.47;7.57;;;25.40;98.00;;;;;;5050654;28;20489;-65
2023/08/21 06:52:53;;;;;;;12.73;7.00;;;25.50;98.00;;;;;;5050659;28;20452;-66
2023/08/21 06:55:20;;;;;;;11.17;7.13;;;25.60;98.00;;;;;;5051241;28;20948;-65
2023/08/21 06:57:47;;;;;;;14.17;8.03;;;25.80;98.00;;;;;;5051087;28;20497;-65
2023/08/21 07:00:15;;;;;;;14.20;8.07;;;25.80;98.00;;;;;;5050956;28;20527;-65
2023/08/21 07:02:42;;;;;;;13.23;7.30;;;25.90;98.00;;;;;;5051306;28;20454;-65
2023/08/21 07:05:09;;;;;;;15.80;8.13;;;26.00;98.00;;;;;;5054318;28;20457;-65
2023/08/21 07:07:39;;;;;;;14.27;7.70;;;26.10;98.00;;;;;;5054638;28;20453;-65
2023/08/21 07:10:08;;;;;;;14.07;7.57;;;26.20;98.00;;;;;;5052746;28;20481;-65
2023/08/21 07:12:37;;;;;;;12.63;7.67;;;26.30;98.00;;;;;;5054424;28;20450;-65
2023/08/21 07:15:04;;;;;;;15.50;8.30;;;26.40;98.00;;;;;;5037156;28;20453;-65
2023/08/21 07:17:31;;;;;;;18.20;7.80;;;26.50;98.00;;;;;;5054363;28;20465;-65
2023/08/21 07:19:59;;;;;;;14.53;7.90;;;26.60;98.00;;;;;;5054375;28;20461;-66
2023/08/21 07:22:26;;;;;;;13.13;7.87;;;26.50;98.00;;;;;;5035866;28;20984;-65
2023/08/21 07:24:54;;;;;;;14.13;8.50;;;26.50;98.00;;;;;;5054381;28;20457;-65
2023/08/21 07:27:22;;;;;;;13.47;7.53;;;26.60;98.00;;;;;;5036475;28;20454;-65
2023/08/21 07:29:49;;;;;;;14.40;7.57;;;26.70;98.00;;;;;;5053583;28;20485;-65
2023/08/21 07:32:16;;;;;;;11.80;7.40;;;26.70;98.00;;;;;;5036313;28;20453;-65
2023/08/21 07:34:45;;;;;;;14.10;8.03;;;26.60;98.00;;;;;;5054156;28;20980;-65
2023/08/21 07:37:12;;;;;;;14.53;7.50;;;26.60;98.00;;;;;;5053949;28;20457;-65
2023/08/21 07:39:39;;;;;;;15.07;8.90;;;26.80;98.00;;;;;;5054004;28;20457;-66
2023/08/21 07:42:08;;;;;;;16.10;8.23;;;26.80;98.00;;;;;;5036013;28;20480;-66
2023/08/21 07:44:38;;;;;;;14.63;8.10;;;26.80;98.00;;;;;;5054032;28;20453;-66
2023/08/21 07:47:05;;;;;;;16.20;8.67;;;26.70;98.00;;;;;;5036650;28;20445;-66
2023/08/21 07:49:32;;;;;;;13.07;8.17;;;26.70;98.00;;;;;;5053934;28;20496;-66
2023/08/21 07:51:59;;;;;;;13.30;7.83;;;26.80;98.00;;;;;;5054084;28;20461;-66
2023/08/21 07:54:26;;;;;;;12.90;7.90;;;26.80;98.00;;;;;;5053942;28;20531;-66
2023/08/21 07:56:53;;;;;;;16.90;7.63;;;26.90;98.00;;;;;;5053660;28;20441;-65
2023/08/21 07:59:22;;;;;;;14.93;8.10;;;27.00;98.00;;;;;;5053764;28;20457;-66
2023/08/21 08:01:49;;;;;;;12.33;7.57;;;27.10;98.00;;;;;;5053557;28;20453;-67
2023/08/21 08:04:16;;;;;;;13.90;8.10;;;27.20;98.00;;;;;;5053315;28;20457;-66
2023/08/21 08:06:43;;;;;;;15.40;7.80;;;27.40;98.00;;;;;;5053420;28;20953;-66
2023/08/21 08:09:11;;;;;;;14.03;7.47;;;27.40;98.00;;;;;;5052809;28;20450;-66
2023/08/21 08:11:38;;;;;;;17.23;9.17;;;27.60;98.00;;;;;;5053458;28;20473;-66
2023/08/21 08:14:05;;;;;;;14.27;8.10;;;27.60;98.00;;;;;;5052169;28;20454;-66
2023/08/21 08:16:34;;;;;;;13.73;8.27;;;27.60;98.00;;;;;;5053155;28;20454;-67
2023/08/21 08:19:01;;;;;;;13.30;8.00;;;27.70;98.00;;;;;;5053254;28;20450;-69
2023/08/21 08:21:28;;;;;;;14.50;8.43;;;27.80;98.00;;;;;;5053150;28;20838;-69
2023/08/21 08:23:57;;;;;;;15.27;8.80;;;27.80;98.00;;;;;;5053110;28;20453;-68
2023/08/21 08:26:24;;;;;;;13.27;8.10;;;28.00;98.00;;;;;;5053081;28;20449;-67
2023/08/21 08:28:51;;;;;;;13.00;7.50;;;28.10;98.00;;;;;;5035373;28;20457;-67
2023/08/21 08:31:19;;;;;;;14.50;7.97;;;28.10;98.00;;;;;;5035280;28;20482;-69
2023/08/21 08:33:48;;;;;;;13.97;8.60;;;28.20;98.00;;;;;;5035344;28;20826;-68
2023/08/21 08:36:15;;;;;;;13.33;8.30;;;28.30;98.00;;;;;;5053030;28;21032;-68
2023/08/21 08:38:43;;;;;;;13.23;7.50;;;28.20;98.00;;;;;;5053063;28;20850;-68
2023/08/21 08:41:15;;;;;;;14.13;8.33;;;28.20;98.00;;;;;;5052800;28;20465;-68
2023/08/21 08:43:43;;;;;;;13.83;8.70;;;28.20;98.00;;;;;;5053187;28;20978;-68
2023/08/21 08:46:11;;;;;;;14.20;8.77;;;28.30;98.00;;;;;;5053130;28;20457;-69
2023/08/21 08:48:39;;;;;;;19.33;9.10;;;28.40;98.00;;;;;;5052930;28;20449;-67
2023/08/21 08:51:09;;;;;;;15.40;8.37;;;28.50;98.00;;;;;;5052776;28;20485;-67
2023/08/21 08:53:37;;;;;;;12.80;7.90;;;28.60;98.00;;;;;;5052655;28;20511;-67
2023/08/21 08:56:04;;;;;;;17.17;9.03;;;28.70;98.00;;;;;;5034815;28;20458;-67
2023/08/21 08:58:32;;;;;;;13.87;8.40;;;28.90;98.00;;;;;;5052756;28;20450;-67
2023/08/21 09:00:59;;;;;;;17.83;8.90;;;29.00;98.00;;;;;;5052569;28;20457;-68
2023/08/21 09:03:27;;;;;;;14.20;8.33;;;29.10;98.00;;;;;;5052694;28;20520;-68
2023/08/21 09:05:54;;;;;;;11.70;7.40;;;29.20;98.00;;;;;;5034466;28;20609;-69
2023/08/21 09:08:23;;;;;;;13.90;8.50;;;29.20;98.00;;;;;;5034714;28;20453;-67
2023/08/21 09:10:56;;;;;;;16.90;8.60;;;29.20;98.00;;;;;;5052479;28;20485;-69
2023/08/21 09:13:27;;;;;;;11.93;7.13;;;29.40;98.00;;;;;;5052680;28;20450;-69
2023/08/21 09:15:56;;;;;;;15.33;8.73;;;29.50;98.00;;;;;;5052183;28;20446;-69
2023/08/21 09:18:23;;;;;;;14.97;8.90;;;29.60;98.00;;;;;;5051650;28;20537;-67
2023/08/21 09:20:50;;;;;;;14.87;8.80;;;29.70;98.00;;;;;;5052043;28;20527;-67
2023/08/21 09:23:20;;;;;;;15.03;8.80;;;29.80;98.00;;;;;;5052093;28;20962;-69
2023/08/21 09:25:49;;;;;;;15.13;8.87;;;29.90;98.00;;;;;;5062043;28;20449;-69
2023/08/21 09:28:20;;;;;;;14.40;8.37;;;30.00;98.00;;;;;;5054527;28;20865;-69
2023/08/21 09:30:50;;;;;;;14.70;8.47;;;30.10;98.00;;;;;;5032647;28;20481;-70
2023/08/21 09:33:20;;;;;;;13.73;8.00;;;30.20;98.00;;;;;;5049714;28;20515;-69
2023/08/21 09:35:48;;;;;;;15.77;9.03;;;30.20;98.00;;;;;;5049781;28;20449;-69
2023/08/21 09:38:16;;;;;;;13.37;7.90;;;30.40;98.00;;;;;;5050181;28;20457;-70
2023/08/21 09:40:56;;;;;;;15.60;8.07;;;30.50;98.00;;;;;;5051507;28;20461;-69
2023/08/21 09:43:24;;;;;;;14.03;8.47;;;30.60;98.00;;;;;;5052069;28;20458;-68
2023/08/21 09:45:54;;;;;;;13.67;8.07;;;30.60;98.00;;;;;;5050562;28;20446;-67
2023/08/21 09:48:23;;;;;;;11.93;7.67;;;30.70;98.00;;;;;;5051676;28;20453;-63
2023/08/21 09:50:52;;;;;;;17.40;7.60;;;30.70;98.00;;;;;;5050350;28;20481;-63
2023/08/21 09:53:21;;;;;;;12.87;8.10;;;30.80;98.00;;;;;;5051479;28;20476;-65
2023/08/21 09:55:54;;;;;;;13.70;7.90;;;30.90;98.00;;;;;;5051726;28;20922;-65
2023/08/21 09:58:21;;;;;;;13.17;8.30;;;31.00;98.00;;;;;;5049538;28;20450;-65
2023/08/21 10:00:50;;;;;;;20.40;8.10;;;31.20;98.00;;;;;;5051532;28;20458;-66
2023/08/21 10:03:21;;;;;;;14.70;8.30;;;31.40;98.00;;;;;;5050195;28;20499;-65
2023/08/21 10:05:49;;;;;;;11.97;7.50;;;31.50;98.00;;;;;;5051679;28;20743;-65
2023/08/21 10:08:24;;;;;;;12.83;7.90;;;31.60;98.00;;;;;;5070896;28;20456;-67
2023/08/21 10:10:53;;;;;;;13.87;8.00;;;31.60;98.00;;;;;;5071066;28;20480;-65
2023/08/21 10:13:20;;;;;;;11.87;7.33;;;31.50;98.00;;;;;;5071164;28;20457;-64
2023/08/21 10:15:48;;;;;;;14.43;8.47;;;31.50;98.00;;;;;;5071298;28;20614;-67
2023/08/21 10:18:23;;;;;;;13.20;8.33;;;31.70;98.00;;;;;;5071154;28;20962;-65
2023/08/21 10:20:51;;;;;;;11.33;7.40;;;31.80;98.00;;;;;;5071092;28;20460;-66
2023/08/21 10:23:28;;;;;;;12.13;8.40;;;31.90;98.00;;;;;;5070842;28;20449;-65
2023/08/21 10:25:58;;;;;;;13.43;8.17;;;32.20;98.00;;;;;;5071282;28;20543;-65
2023/08/21 10:28:25;;;;;;;11.67;7.63;;;32.30;98.00;;;;;;5071203;28;20939;-65
2023/08/21 10:30:52;;;;;;;12.30;7.30;;;32.40;98.00;;;;;;5071240;28;20492;-66
2023/08/21 10:33:47;;;;;;;14.33;8.27;;;32.60;98.00;;;;;;5071101;28;20448;-66
2023/08/21 10:36:14;;;;;;;12.73;8.10;;;32.60;98.00;;;;;;5042319;28;20722;-67
2023/08/21 10:39:04;;;;;;;13.53;7.40;;;32.80;98.00;;;;;;5032946;28;20869;-66
2023/08/21 10:41:32;;;;;;;13.37;8.40;;;32.80;98.00;;;;;;5050800;28;20939;-67
2023/08/21 10:44:00;;;;;;;12.93;7.47;;;32.80;98.00;;;;;;5050845;28;20983;-67
2023/08/21 10:46:27;;;;;;;19.17;8.00;;;32.80;98.00;;;;;;5050962;28;20514;-67
2023/08/21 10:48:54;;;;;;;12.57;8.00;;;32.90;98.00;;;;;;5032553;28;20802;-68
2023/08/21 10:51:21;;;;;;;13.63;8.27;;;33.00;98.00;;;;;;5050825;28;20485;-67
2023/08/21 10:53:48;;;;;;;13.97;7.70;;;33.10;98.00;;;;;;5050513;28;20456;-66
2023/08/21 10:56:17;;;;;;;12.00;7.10;;;33.30;98.00;;;;;;5050713;28;20462;-67
2023/08/21 10:58:47;;;;;;;14.93;7.63;;;33.50;98.00;;;;;;5032770;28;20456;-66
2023/08/21 11:01:15;;;;;;;11.83;7.50;;;33.60;98.00;;;;;;5050471;28;20450;-66
2023/08/21 11:03:46;;;;;;;15.30;7.80;;;33.60;98.00;;;;;;5050819;28;20515;-66
2023/08/21 11:06:13;;;;;;;12.60;7.70;;;33.70;98.00;;;;;;5050537;28;20932;-67
2023/08/21 11:08:41;;;;;;;11.30;7.47;;;33.70;98.00;;;;;;5050650;28;20450;-66
2023/08/21 11:11:09;;;;;;;14.13;8.00;;;33.80;97.40;;;;;;5050414;28;20485;-66
2023/08/21 11:13:36;;;;;;;12.97;8.03;;;33.90;98.00;;;;;;5050235;28;20937;-67
2023/08/21 11:16:06;;;;;;;12.03;8.00;;;34.10;97.90;;;;;;5050472;28;20456;-65
2023/08/21 11:18:34;;;;;;;12.60;7.73;;;34.30;98.00;;;;;;5050404;28;20469;-68
2023/08/21 11:21:05;;;;;;;12.23;7.90;;;34.60;98.00;;;;;;5050206;28;20462;-67
2023/08/21 11:23:35;;;;;;;15.87;8.20;;;34.80;96.50;;;;;;5050389;28;20453;-67
2023/08/21 11:26:02;;;;;;;11.20;7.23;;;34.90;97.70;;;;;;5050085;28;20998;-67
2023/08/21 11:28:31;;;;;;;12.43;7.67;;;35.00;95.40;;;;;;5050391;28;20482;-67
2023/08/21 11:31:00;;;;;;;10.47;7.33;;;35.20;95.70;;;;;;5031889;28;20486;-67
2023/08/21 11:33:29;;;;;;;11.27;7.37;;;35.30;94.10;;;;;;5050534;28;20531;-68
2023/08/21 11:35:58;;;;;;;10.87;7.03;;;35.40;94.20;;;;;;5050674;28;20452;-68
2023/08/21 11:38:27;;;;;;;13.83;7.47;;;35.50;93.80;;;;;;5050127;28;20453;-66
2023/08/21 11:40:58;;;;;;;11.80;7.60;;;35.40;93.30;;;;;;5050489;28;20457;-66
2023/08/21 11:43:35;;;;;;;11.77;7.97;;;35.30;93.80;;;;;;5050013;28;20790;-66
2023/08/21 11:46:03;;;;;;;10.60;7.33;;;35.30;93.20;;;;;;5050255;28;20963;-64
2023/08/21 11:48:32;;;;;;;16.10;7.43;;;35.50;93.30;;;;;;5051202;28;21096;-64
2023/08/21 11:51:01;;;;;;;10.60;7.10;;;35.80;93.90;;;;;;5053829;28;20485;-65
2023/08/21 11:53:36;;;;;;;16.30;8.33;;;36.00;93.40;;;;;;5054054;28;20489;-65
2023/08/21 11:56:04;;;;;;;12.60;7.80;;;36.20;91.50;;;;;;5053711;28;20485;-65
2023/08/21 11:58:31;;;;;;;11.73;7.83;;;36.10;94.00;;;;;;5053771;28;20454;-65
2023/08/21 12:01:04;;;;;;;11.27;7.57;;;36.20;90.40;;;;;;5053808;28;20990;-67
2023/08/21 12:03:37;;;;;;;11.47;7.07;;;36.50;91.20;;;;;;5053805;28;20491;-67
2023/08/21 12:06:06;;;;;;;13.40;7.97;;;36.80;90.40;;;;;;5053638;28;20537;-66
2023/08/21 12:08:34;;;;;;;12.50;8.37;;;37.00;88.60;;;;;;5053355;28;20971;-66
2023/08/21 12:11:01;;;;;;;11.93;7.90;;;36.70;88.90;;;;;;5053411;28;20485;-67
2023/08/21 12:13:28;;;;;;;11.20;7.27;;;36.50;88.20;;;;;;5053083;28;20450;-66
2023/08/21 12:15:55;;;;;;;17.50;7.70;;;36.30;89.60;;;;;;5035604;28;20936;-66
2023/08/21 12:18:23;;;;;;;15.90;8.30;;;36.20;90.70;;;;;;5053228;28;20940;-66
2023/08/21 12:20:52;;;;;;;13.03;7.53;;;36.20;89.90;;;;;;5035144;28;20450;-66
2023/08/21 12:23:19;;;;;;;12.13;7.77;;;36.10;89.60;;;;;;5053248;28;20461;-66
2023/08/21 12:25:47;;;;;;;10.00;6.90;;;36.10;93.50;;;;;;5052931;28;20457;-66
2023/08/21 12:28:14;;;;;;;11.43;7.20;;;36.20;89.20;;;;;;5035360;28;20481;-66
2023/08/21 12:30:41;;;;;;;11.80;7.50;;;36.20;90.90;;;;;;5052935;28;20555;-66
2023/08/21 12:33:08;;;;;;;12.67;7.57;;;36.30;87.70;;;;;;5053215;28;20454;-66
2023/08/21 12:35:35;;;;;;;10.80;7.43;;;36.30;89.00;;;;;;5053205;28;20872;-66
2023/08/21 12:38:12;;;;;;;11.40;7.77;;;36.00;88.30;;;;;;5035062;28;20458;-65
2023/08/21 12:40:39;;;;;;;12.30;7.47;;;35.90;90.20;;;;;;5052739;28;20557;-66